Terminal Aerodrome Forecast
Issued by NWS Boise, ID

Home | Current Version | Previous Version | Text Only | Print | Product List | Glossary On
Versions: 1 2 3 4 5 6 7 8 9 10 11 12 13 14 15 16
000
FTUS45 KBOI 181120
TAFBOI
TAF
KBOI 181120Z 1812/1912 31009KT P6SM SCT060 BKN090
     FM181800 32009G19KT P6SM SCT090
     FM190300 VRB05KT P6SM SCT200=

USA.gov is the U.S. government's official web portal to all federal, state and local government web resources and services.